sensor_id;sensor_type;location;lat;lon;timestamp;temperature;humidity
6740;DHT22;3407;49.882;10.920;2023-07-02T00:00:20;17.80;1.00
6740;DHT22;3407;49.882;10.920;2023-07-02T00:05:16;17.80;1.00
6740;DHT22;3407;49.882;10.920;2023-07-02T00:10:13;17.80;1.00
6740;DHT22;3407;49.882;10.920;2023-07-02T00:15:08;17.80;1.00
6740;DHT22;3407;49.882;10.920;2023-07-02T00:20:04;17.80;1.00
6740;DHT22;3407;49.882;10.920;2023-07-02T00:25:00;17.70;1.00
6740;DHT22;3407;49.882;10.920;2023-07-02T00:29:56;17.80;1.00
6740;DHT22;3407;49.882;10.920;2023-07-02T00:34:51;17.70;1.00
6740;DHT22;3407;49.882;10.920;2023-07-02T00:39:47;17.60;1.00
6740;DHT22;3407;49.882;10.920;2023-07-02T00:44:42;17.50;1.00
6740;DHT22;3407;49.882;10.920;2023-07-02T00:49:39;17.40;1.00
6740;DHT22;3407;49.882;10.920;2023-07-02T00:54:35;17.30;1.00
6740;DHT22;3407;49.882;10.920;2023-07-02T00:59:32;17.20;1.00
6740;DHT22;3407;49.882;10.920;2023-07-02T01:04:32;17.10;1.00
6740;DHT22;3407;49.882;10.920;2023-07-02T01:09:28;17.10;1.00
6740;DHT22;3407;49.882;10.920;2023-07-02T01:14:30;17.20;1.00
6740;DHT22;3407;49.882;10.920;2023-07-02T01:19:56;17.30;1.00
6740;DHT22;3407;49.882;10.920;2023-07-02T01:24:54;17.40;1.00
6740;DHT22;3407;49.882;10.920;2023-07-02T01:29:53;17.40;1.00
6740;DHT22;3407;49.882;10.920;2023-07-02T01:34:49;17.40;1.00
6740;DHT22;3407;49.882;10.920;2023-07-02T01:39:48;17.40;1.00
6740;DHT22;3407;49.882;10.920;2023-07-02T01:44:45;17.30;1.00
6740;DHT22;3407;49.882;10.920;2023-07-02T01:49:40;17.30;1.00
6740;DHT22;3407;49.882;10.920;2023-07-02T01:54:36;17.20;1.00
6740;DHT22;3407;49.882;10.920;2023-07-02T01:59:32;17.10;1.00
6740;DHT22;3407;49.882;10.920;2023-07-02T02:04:27;17.10;1.00
6740;DHT22;3407;49.882;10.920;2023-07-02T02:09:23;17.00;1.00
6740;DHT22;3407;49.882;10.920;2023-07-02T02:14:18;17.00;1.00
6740;DHT22;3407;49.882;10.920;2023-07-02T02:19:14;16.90;1.00
6740;DHT22;3407;49.882;10.920;2023-07-02T02:24:10;17.00;1.00
6740;DHT22;3407;49.882;10.920;2023-07-02T02:29:06;17.00;1.00
6740;DHT22;3407;49.882;10.920;2023-07-02T02:34:01;17.00;1.00
6740;DHT22;3407;49.882;10.920;2023-07-02T02:38:57;17.00;1.00
6740;DHT22;3407;49.882;10.920;2023-07-02T02:43:53;17.00;1.00
6740;DHT22;3407;49.882;10.920;2023-07-02T02:48:49;17.10;1.00
6740;DHT22;3407;49.882;10.920;2023-07-02T02:53:44;17.10;1.00
6740;DHT22;3407;49.882;10.920;2023-07-02T02:58:40;17.10;1.00
6740;DHT22;3407;49.882;10.920;2023-07-02T03:03:39;17.10;1.00
6740;DHT22;3407;49.882;10.920;2023-07-02T03:08:34;17.00;1.00
6740;DHT22;3407;49.882;10.920;2023-07-02T03:13:30;16.90;1.00
6740;DHT22;3407;49.882;10.920;2023-07-02T03:18:25;16.90;1.00
6740;DHT22;3407;49.882;10.920;2023-07-02T03:23:21;16.70;1.00
6740;DHT22;3407;49.882;10.920;2023-07-02T03:28:16;16.60;1.00
6740;DHT22;3407;49.882;10.920;2023-07-02T03:33:12;16.50;1.00
6740;DHT22;3407;49.882;10.920;2023-07-02T03:38:08;16.50;1.00
6740;DHT22;3407;49.882;10.920;2023-07-02T03:43:03;16.40;1.00
6740;DHT22;3407;49.882;10.920;2023-07-02T03:47:59;16.40;1.00
6740;DHT22;3407;49.882;10.920;2023-07-02T03:52:54;16.40;1.00
6740;DHT22;3407;49.882;10.920;2023-07-02T03:57:50;16.40;1.00
6740;DHT22;3407;49.882;10.920;2023-07-02T04:02:46;16.40;1.00
6740;DHT22;3407;49.882;10.920;2023-07-02T04:07:41;16.40;1.00
6740;DHT22;3407;49.882;10.920;2023-07-02T04:12:37;16.60;1.00
6740;DHT22;3407;49.882;10.920;2023-07-02T04:17:32;16.70;1.00
6740;DHT22;3407;49.882;10.920;2023-07-02T04:22:28;16.70;1.00
6740;DHT22;3407;49.882;10.920;2023-07-02T04:27:23;17.00;1.00
6740;DHT22;3407;49.882;10.920;2023-07-02T04:32:19;17.20;77.30
6740;DHT22;3407;49.882;10.920;2023-07-02T04:37:14;17.30;99.90
6740;DHT22;3407;49.882;10.920;2023-07-02T04:42:10;17.80;68.20
6740;DHT22;3407;49.882;10.920;2023-07-02T04:47:08;18.20;2.10
6740;DHT22;3407;49.882;10.920;2023-07-02T04:52:04;18.40;1.00
6740;DHT22;3407;49.882;10.920;2023-07-02T04:57:00;18.20;1.00
6740;DHT22;3407;49.882;10.920;2023-07-02T05:01:55;18.00;1.00
6740;DHT22;3407;49.882;10.920;2023-07-02T05:06:51;18.30;1.00
6740;DHT22;3407;49.882;10.920;2023-07-02T05:11:46;18.90;30.00
6740;DHT22;3407;49.882;10.920;2023-07-02T05:16:43;18.80;1.00
6740;DHT22;3407;49.882;10.920;2023-07-02T05:21:38;18.70;1.00
6740;DHT22;3407;49.882;10.920;2023-07-02T05:26:34;19.20;1.00
6740;DHT22;3407;49.882;10.920;2023-07-02T05:31:30;19.40;1.00
6740;DHT22;3407;49.882;10.920;2023-07-02T05:36:25;19.80;99.90
6740;DHT22;3407;49.882;10.920;2023-07-02T05:41:22;20.10;99.90
6740;DHT22;3407;49.882;10.920;2023-07-02T05:46:17;22.90;99.90
6740;DHT22;3407;49.882;10.920;2023-07-02T05:51:19;25.10;99.90
6740;DHT22;3407;49.882;10.920;2023-07-02T05:56:14;26.30;99.90
6740;DHT22;3407;49.882;10.920;2023-07-02T06:01:10;25.70;99.90
6740;DHT22;3407;49.882;10.920;2023-07-02T06:06:05;24.40;99.90
6740;DHT22;3407;49.882;10.920;2023-07-02T06:11:01;22.70;99.90
6740;DHT22;3407;49.882;10.920;2023-07-02T06:15:57;21.60;99.90
6740;DHT22;3407;49.882;10.920;2023-07-02T06:20:52;22.10;99.90
6740;DHT22;3407;49.882;10.920;2023-07-02T06:25:48;22.60;99.90
6740;DHT22;3407;49.882;10.920;2023-07-02T06:30:44;25.00;99.90
6740;DHT22;3407;49.882;10.920;2023-07-02T06:35:39;27.70;95.20
6740;DHT22;3407;49.882;10.920;2023-07-02T06:40:35;29.30;73.00
6740;DHT22;3407;49.882;10.920;2023-07-02T06:45:30;30.30;57.00
6740;DHT22;3407;49.882;10.920;2023-07-02T06:50:26;31.30;43.10
6740;DHT22;3407;49.882;10.920;2023-07-02T06:55:21;31.20;34.80
6740;DHT22;3407;49.882;10.920;2023-07-02T07:00:17;28.90;34.40
6740;DHT22;3407;49.882;10.920;2023-07-02T07:05:12;26.70;41.00
6740;DHT22;3407;49.882;10.920;2023-07-02T07:10:08;25.30;47.60
6740;DHT22;3407;49.882;10.920;2023-07-02T07:15:04;24.70;53.30
6740;DHT22;3407;49.882;10.920;2023-07-02T07:20:00;23.40;59.90
6740;DHT22;3407;49.882;10.920;2023-07-02T07:24:57;22.20;72.30
6740;DHT22;3407;49.882;10.920;2023-07-02T07:29:53;21.50;84.70
6740;DHT22;3407;49.882;10.920;2023-07-02T07:34:48;21.10;93.60
6740;DHT22;3407;49.882;10.920;2023-07-02T07:39:44;20.90;99.60
6740;DHT22;3407;49.882;10.920;2023-07-02T07:44:39;20.90;99.90
6740;DHT22;3407;49.882;10.920;2023-07-02T07:49:35;21.40;99.90
6740;DHT22;3407;49.882;10.920;2023-07-02T07:54:30;21.30;99.90
6740;DHT22;3407;49.882;10.920;2023-07-02T07:59:26;22.30;99.90
6740;DHT22;3407;49.882;10.920;2023-07-02T08:04:21;23.60;97.90
6740;DHT22;3407;49.882;10.920;2023-07-02T08:09:17;24.40;91.20
6740;DHT22;3407;49.882;10.920;2023-07-02T08:14:12;24.90;84.90
6740;DHT22;3407;49.882;10.920;2023-07-02T08:19:08;25.70;79.10
6740;DHT22;3407;49.882;10.920;2023-07-02T08:24:04;26.20;65.00
6740;DHT22;3407;49.882;10.920;2023-07-02T08:28:59;26.30;57.70
6740;DHT22;3407;49.882;10.920;2023-07-02T08:33:55;26.70;57.00
6740;DHT22;3407;49.882;10.920;2023-07-02T08:38:51;27.10;52.50
6740;DHT22;3407;49.882;10.920;2023-07-02T08:43:46;27.30;49.40
6740;DHT22;3407;49.882;10.920;2023-07-02T08:48:44;27.30;46.40
6740;DHT22;3407;49.882;10.920;2023-07-02T08:53:40;26.50;46.00
6740;DHT22;3407;49.882;10.920;2023-07-02T08:58:35;26.90;46.60
6740;DHT22;3407;49.882;10.920;2023-07-02T09:03:31;27.00;43.20
6740;DHT22;3407;49.882;10.920;2023-07-02T09:08:27;27.00;43.30
6740;DHT22;3407;49.882;10.920;2023-07-02T09:13:23;26.70;43.10
6740;DHT22;3407;49.882;10.920;2023-07-02T09:18:22;25.80;44.80
6740;DHT22;3407;49.882;10.920;2023-07-02T09:23:20;24.90;48.10
6740;DHT22;3407;49.882;10.920;2023-07-02T09:28:23;24.70;53.50
6740;DHT22;3407;49.882;10.920;2023-07-02T09:33:19;24.70;53.90
6740;DHT22;3407;49.882;10.920;2023-07-02T09:38:15;24.50;53.90
6740;DHT22;3407;49.882;10.920;2023-07-02T09:43:11;25.70;56.80
6740;DHT22;3407;49.882;10.920;2023-07-02T09:48:07;27.20;47.70
6740;DHT22;3407;49.882;10.920;2023-07-02T09:53:03;27.40;41.70
6740;DHT22;3407;49.882;10.920;2023-07-02T09:57:59;26.30;44.90
6740;DHT22;3407;49.882;10.920;2023-07-02T10:02:54;25.60;49.30
6740;DHT22;3407;49.882;10.920;2023-07-02T10:07:50;25.40;47.20
6740;DHT22;3407;49.882;10.920;2023-07-02T10:12:46;25.20;48.50
6740;DHT22;3407;49.882;10.920;2023-07-02T10:17:42;24.70;51.90
6740;DHT22;3407;49.882;10.920;2023-07-02T10:22:43;23.80;54.00
6740;DHT22;3407;49.882;10.920;2023-07-02T10:27:41;23.40;56.60
6740;DHT22;3407;49.882;10.920;2023-07-02T10:32:37;24.60;55.90
6740;DHT22;3407;49.882;10.920;2023-07-02T10:37:36;25.10;51.90
6740;DHT22;3407;49.882;10.920;2023-07-02T10:42:33;25.00;53.90
6740;DHT22;3407;49.882;10.920;2023-07-02T10:47:29;24.70;52.60
6740;DHT22;3407;49.882;10.920;2023-07-02T10:52:25;25.40;51.00
6740;DHT22;3407;49.882;10.920;2023-07-02T10:57:20;25.20;49.40
6740;DHT22;3407;49.882;10.920;2023-07-02T11:02:17;25.00;47.10
6740;DHT22;3407;49.882;10.920;2023-07-02T11:07:14;25.40;41.30
6740;DHT22;3407;49.882;10.920;2023-07-02T11:12:09;25.30;43.30
6740;DHT22;3407;49.882;10.920;2023-07-02T11:17:06;25.80;42.90
6740;DHT22;3407;49.882;10.920;2023-07-02T11:22:02;26.70;37.70
6740;DHT22;3407;49.882;10.920;2023-07-02T11:26:59;26.20;34.60
6740;DHT22;3407;49.882;10.920;2023-07-02T11:32:05;26.10;36.00
6740;DHT22;3407;49.882;10.920;2023-07-02T11:37:01;26.70;34.30
6740;DHT22;3407;49.882;10.920;2023-07-02T11:41:56;26.60;53.60
6740;DHT22;3407;49.882;10.920;2023-07-02T11:46:52;25.60;32.80
6740;DHT22;3407;49.882;10.920;2023-07-02T11:51:48;25.00;37.00
6740;DHT22;3407;49.882;10.920;2023-07-02T11:56:44;26.20;41.30
6740;DHT22;3407;49.882;10.920;2023-07-02T12:01:40;28.30;30.40
6740;DHT22;3407;49.882;10.920;2023-07-02T12:06:35;28.10;26.00
6740;DHT22;3407;49.882;10.920;2023-07-02T12:11:31;27.40;25.60
6740;DHT22;3407;49.882;10.920;2023-07-02T12:16:26;27.90;23.60
6740;DHT22;3407;49.882;10.920;2023-07-02T12:21:22;28.50;20.90
6740;DHT22;3407;49.882;10.920;2023-07-02T12:26:17;28.50;19.00
6740;DHT22;3407;49.882;10.920;2023-07-02T12:31:13;27.20;19.60
6740;DHT22;3407;49.882;10.920;2023-07-02T12:36:09;26.70;21.80
6740;DHT22;3407;49.882;10.920;2023-07-02T12:41:04;27.20;22.40
6740;DHT22;3407;49.882;10.920;2023-07-02T12:46:00;27.20;22.60
6740;DHT22;3407;49.882;10.920;2023-07-02T12:50:57;29.70;19.20
6740;DHT22;3407;49.882;10.920;2023-07-02T12:55:53;29.10;13.00
6740;DHT22;3407;49.882;10.920;2023-07-02T13:00:49;27.90;17.20
6740;DHT22;3407;49.882;10.920;2023-07-02T13:05:44;27.20;17.70
6740;DHT22;3407;49.882;10.920;2023-07-02T13:24:56;26.40;6.90
6740;DHT22;3407;49.882;10.920;2023-07-02T13:29:52;28.90;17.50
6740;DHT22;3407;49.882;10.920;2023-07-02T13:34:47;29.10;12.30
6740;DHT22;3407;49.882;10.920;2023-07-02T13:39:44;27.60;12.40
6740;DHT22;3407;49.882;10.920;2023-07-02T13:44:40;26.70;14.60
6740;DHT22;3407;49.882;10.920;2023-07-02T13:49:35;26.40;15.10
6740;DHT22;3407;49.882;10.920;2023-07-02T13:54:31;26.10;15.60
6740;DHT22;3407;49.882;10.920;2023-07-02T13:59:26;26.40;15.70
6740;DHT22;3407;49.882;10.920;2023-07-02T14:04:22;26.70;15.80
6740;DHT22;3407;49.882;10.920;2023-07-02T14:09:17;26.90;14.20
6740;DHT22;3407;49.882;10.920;2023-07-02T14:14:13;26.80;11.60
6740;DHT22;3407;49.882;10.920;2023-07-02T14:19:09;26.60;13.30
6740;DHT22;3407;49.882;10.920;2023-07-02T14:24:04;26.60;12.40
6740;DHT22;3407;49.882;10.920;2023-07-02T14:29:00;26.50;12.80
6740;DHT22;3407;49.882;10.920;2023-07-02T14:33:56;26.40;11.60
6740;DHT22;3407;49.882;10.920;2023-07-02T14:38:51;26.10;11.90
6740;DHT22;3407;49.882;10.920;2023-07-02T14:43:47;26.00;11.20
6740;DHT22;3407;49.882;10.920;2023-07-02T14:48:42;25.90;11.60
6740;DHT22;3407;49.882;10.920;2023-07-02T14:53:38;25.70;10.60
6740;DHT22;3407;49.882;10.920;2023-07-02T14:58:35;25.70;12.00
6740;DHT22;3407;49.882;10.920;2023-07-02T15:03:30;25.60;11.40
6740;DHT22;3407;49.882;10.920;2023-07-02T15:08:26;25.40;10.20
6740;DHT22;3407;49.882;10.920;2023-07-02T15:13:21;25.30;12.80
6740;DHT22;3407;49.882;10.920;2023-07-02T15:18:17;25.30;13.20
6740;DHT22;3407;49.882;10.920;2023-07-02T15:23:15;25.20;10.40
6740;DHT22;3407;49.882;10.920;2023-07-02T15:28:10;25.20;10.90
6740;DHT22;3407;49.882;10.920;2023-07-02T15:33:06;25.00;12.60
6740;DHT22;3407;49.882;10.920;2023-07-02T15:38:01;25.00;13.00
6740;DHT22;3407;49.882;10.920;2023-07-02T15:42:57;24.90;12.10
6740;DHT22;3407;49.882;10.920;2023-07-02T15:47:52;25.10;12.40
6740;DHT22;3407;49.882;10.920;2023-07-02T15:52:48;25.00;12.00
6740;DHT22;3407;49.882;10.920;2023-07-02T15:57:45;24.80;12.90
6740;DHT22;3407;49.882;10.920;2023-07-02T16:02:41;24.80;14.50
6740;DHT22;3407;49.882;10.920;2023-07-02T16:07:37;24.90;13.60
6740;DHT22;3407;49.882;10.920;2023-07-02T16:12:33;24.80;12.90
6740;DHT22;3407;49.882;10.920;2023-07-02T16:17:30;24.60;11.90
6740;DHT22;3407;49.882;10.920;2023-07-02T16:22:25;24.40;12.10
6740;DHT22;3407;49.882;10.920;2023-07-02T16:27:21;24.20;12.30
6740;DHT22;3407;49.882;10.920;2023-07-02T16:32:16;23.90;12.90
6740;DHT22;3407;49.882;10.920;2023-07-02T16:37:14;23.60;14.50
6740;DHT22;3407;49.882;10.920;2023-07-02T16:42:10;23.40;15.30
6740;DHT22;3407;49.882;10.920;2023-07-02T16:47:07;23.40;16.60
6740;DHT22;3407;49.882;10.920;2023-07-02T16:52:03;23.50;17.50
6740;DHT22;3407;49.882;10.920;2023-07-02T16:57:01;23.50;14.90
6740;DHT22;3407;49.882;10.920;2023-07-02T17:01:58;23.30;15.90
6740;DHT22;3407;49.882;10.920;2023-07-02T17:06:56;23.20;17.00
6740;DHT22;3407;49.882;10.920;2023-07-02T17:11:52;23.20;17.30
6740;DHT22;3407;49.882;10.920;2023-07-02T17:16:50;23.10;16.70
6740;DHT22;3407;49.882;10.920;2023-07-02T17:21:47;23.00;16.90
6740;DHT22;3407;49.882;10.920;2023-07-02T17:26:47;22.90;17.90
6740;DHT22;3407;49.882;10.920;2023-07-02T17:31:48;22.70;19.20
6740;DHT22;3407;49.882;10.920;2023-07-02T17:36:55;22.60;19.80
6740;DHT22;3407;49.882;10.920;2023-07-02T17:41:52;22.50;20.40
6740;DHT22;3407;49.882;10.920;2023-07-02T17:46:48;22.40;21.00
6740;DHT22;3407;49.882;10.920;2023-07-02T17:51:44;22.30;21.60
6740;DHT22;3407;49.882;10.920;2023-07-02T17:56:39;22.10;22.90
6740;DHT22;3407;49.882;10.920;2023-07-02T18:01:44;22.00;21.80
6740;DHT22;3407;49.882;10.920;2023-07-02T18:06:44;21.90;23.00
6740;DHT22;3407;49.882;10.920;2023-07-02T18:11:41;21.80;24.40
6740;DHT22;3407;49.882;10.920;2023-07-02T18:16:37;21.70;25.60
6740;DHT22;3407;49.882;10.920;2023-07-02T18:21:32;21.60;25.90
6740;DHT22;3407;49.882;10.920;2023-07-02T18:26:28;21.50;26.10
6740;DHT22;3407;49.882;10.920;2023-07-02T18:31:23;21.40;27.10
6740;DHT22;3407;49.882;10.920;2023-07-02T18:36:19;21.20;28.70
6740;DHT22;3407;49.882;10.920;2023-07-02T18:41:14;21.10;29.70
6740;DHT22;3407;49.882;10.920;2023-07-02T18:46:10;21.00;31.10
6740;DHT22;3407;49.882;10.920;2023-07-02T18:51:06;21.00;32.40
6740;DHT22;3407;49.882;10.920;2023-07-02T18:56:04;21.00;32.30
6740;DHT22;3407;49.882;10.920;2023-07-02T19:01:10;21.00;32.60
6740;DHT22;3407;49.882;10.920;2023-07-02T19:06:09;20.90;33.40
6740;DHT22;3407;49.882;10.920;2023-07-02T19:11:06;20.80;34.80
6740;DHT22;3407;49.882;10.920;2023-07-02T19:16:02;20.60;36.20
6740;DHT22;3407;49.882;10.920;2023-07-02T19:20:59;20.50;38.50
6740;DHT22;3407;49.882;10.920;2023-07-02T19:25:55;20.40;40.60
6740;DHT22;3407;49.882;10.920;2023-07-02T19:30:51;20.10;41.20
6740;DHT22;3407;49.882;10.920;2023-07-02T19:35:51;20.00;43.80
6740;DHT22;3407;49.882;10.920;2023-07-02T19:40:54;19.80;46.00
6740;DHT22;3407;49.882;10.920;2023-07-02T19:45:52;19.60;48.50
6740;DHT22;3407;49.882;10.920;2023-07-02T19:51:00;19.40;52.40
6740;DHT22;3407;49.882;10.920;2023-07-02T19:55:56;19.30;57.40
6740;DHT22;3407;49.882;10.920;2023-07-02T20:00:52;19.20;66.80
6740;DHT22;3407;49.882;10.920;2023-07-02T20:05:48;19.10;81.70
6740;DHT22;3407;49.882;10.920;2023-07-02T20:10:44;19.10;95.00
6740;DHT22;3407;49.882;10.920;2023-07-02T20:15:39;19.00;99.90
6740;DHT22;3407;49.882;10.920;2023-07-02T20:20:35;18.80;99.90
6740;DHT22;3407;49.882;10.920;2023-07-02T20:25:37;18.50;99.90
6740;DHT22;3407;49.882;10.920;2023-07-02T20:30:33;18.40;99.90
6740;DHT22;3407;49.882;10.920;2023-07-02T20:35:28;18.20;99.90
6740;DHT22;3407;49.882;10.920;2023-07-02T20:40:24;18.00;99.90
6740;DHT22;3407;49.882;10.920;2023-07-02T20:45:19;17.80;99.90
6740;DHT22;3407;49.882;10.920;2023-07-02T20:50:17;17.60;99.90
6740;DHT22;3407;49.882;10.920;2023-07-02T20:55:13;17.50;99.90
6740;DHT22;3407;49.882;10.920;2023-07-02T21:00:09;17.30;99.90
6740;DHT22;3407;49.882;10.920;2023-07-02T21:05:07;17.10;99.90
6740;DHT22;3407;49.882;10.920;2023-07-02T21:10:03;16.90;99.90
6740;DHT22;3407;49.882;10.920;2023-07-02T21:14:59;16.70;99.90
6740;DHT22;3407;49.882;10.920;2023-07-02T21:19:54;16.60;99.90
6740;DHT22;3407;49.882;10.920;2023-07-02T21:24:50;16.40;99.90
6740;DHT22;3407;49.882;10.920;2023-07-02T21:29:46;16.20;99.90
6740;DHT22;3407;49.882;10.920;2023-07-02T21:34:41;16.20;99.90
6740;DHT22;3407;49.882;10.920;2023-07-02T21:39:37;16.10;99.90
6740;DHT22;3407;49.882;10.920;2023-07-02T21:44:33;16.20;99.90
6740;DHT22;3407;49.882;10.920;2023-07-02T21:49:28;16.10;99.90
6740;DHT22;3407;49.882;10.920;2023-07-02T21:54:26;16.10;99.90
6740;DHT22;3407;49.882;10.920;2023-07-02T21:59:23;16.10;99.90
6740;DHT22;3407;49.882;10.920;2023-07-02T22:04:18;16.00;99.90
6740;DHT22;3407;49.882;10.920;2023-07-02T22:09:14;15.80;99.90
6740;DHT22;3407;49.882;10.920;2023-07-02T22:14:09;15.60;99.90
6740;DHT22;3407;49.882;10.920;2023-07-02T22:19:05;15.50;1.00
6740;DHT22;3407;49.882;10.920;2023-07-02T22:24:01;15.30;1.00
6740;DHT22;3407;49.882;10.920;2023-07-02T22:28:56;15.40;1.00
6740;DHT22;3407;49.882;10.920;2023-07-02T22:33:51;15.30;1.00
6740;DHT22;3407;49.882;10.920;2023-07-02T22:38:48;15.20;1.00
6740;DHT22;3407;49.882;10.920;2023-07-02T22:43:44;15.20;1.00
6740;DHT22;3407;49.882;10.920;2023-07-02T22:48:40;15.10;1.00
6740;DHT22;3407;49.882;10.920;2023-07-02T22:53:36;15.10;1.00
6740;DHT22;3407;49.882;10.920;2023-07-02T22:58:31;14.90;1.00
6740;DHT22;3407;49.882;10.920;2023-07-02T23:03:26;14.70;1.00
6740;DHT22;3407;49.882;10.920;2023-07-02T23:08:22;14.50;99.90
6740;DHT22;3407;49.882;10.920;2023-07-02T23:13:17;14.30;99.90
6740;DHT22;3407;49.882;10.920;2023-07-02T23:18:13;14.30;1.00
6740;DHT22;3407;49.882;10.920;2023-07-02T23:23:08;14.20;1.00
6740;DHT22;3407;49.882;10.920;2023-07-02T23:28:04;14.10;88.80
6740;DHT22;3407;49.882;10.920;2023-07-02T23:33:03;14.00;99.90
6740;DHT22;3407;49.882;10.920;2023-07-02T23:38:05;14.00;99.90
6740;DHT22;3407;49.882;10.920;2023-07-02T23:43:01;14.00;99.90
6740;DHT22;3407;49.882;10.920;2023-07-02T23:47:57;14.00;99.90
6740;DHT22;3407;49.882;10.920;2023-07-02T23:52:52;14.00;1.00
6740;DHT22;3407;49.882;10.920;2023-07-02T23:57:48;13.90;1.00
